createdAt,value
2024-05-09T00:01:02.918Z,15.03
2024-05-09T00:03:32.740Z,15.06
2024-05-09T00:06:02.598Z,15.03
2024-05-09T00:08:32.622Z,15.02
2024-05-09T00:11:05.256Z,15.02
2024-05-09T00:13:35.039Z,14.95
2024-05-09T00:16:04.757Z,14.96
2024-05-09T00:18:34.565Z,14.95
2024-05-09T00:21:06.768Z,14.94
2024-05-09T00:23:36.752Z,14.91
2024-05-09T00:26:09.231Z,14.91
2024-05-09T00:28:38.965Z,14.86
2024-05-09T00:31:08.578Z,14.87
2024-05-09T00:33:38.553Z,14.86
2024-05-09T00:36:10.060Z,14.85
2024-05-09T00:38:39.736Z,14.82
2024-05-09T00:41:12.024Z,14.83
2024-05-09T00:43:41.784Z,14.77
2024-05-09T00:46:12.570Z,14.77
2024-05-09T00:48:44.925Z,14.75
2024-05-09T00:51:14.899Z,14.71
2024-05-09T00:53:44.935Z,14.69
2024-05-09T00:56:18.438Z,14.70
2024-05-09T00:58:48.654Z,14.65
2024-05-09T01:01:23.798Z,14.66
2024-05-09T01:03:54.043Z,14.62
2024-05-09T01:06:24.309Z,14.60
2024-05-09T01:08:54.137Z,14.58
2024-05-09T01:11:26.545Z,14.58
2024-05-09T01:13:56.436Z,14.53
2024-05-09T01:16:26.421Z,14.53
2024-05-09T01:18:56.202Z,14.51
2024-05-09T01:21:26.106Z,14.49
2024-05-09T01:23:59.722Z,14.49
2024-05-09T01:26:32.465Z,14.45
2024-05-09T01:29:02.686Z,14.44
2024-05-09T01:31:32.769Z,14.42
2024-05-09T01:34:03.025Z,14.41
2024-05-09T01:36:32.819Z,14.39
2024-05-09T01:39:05.298Z,14.41
2024-05-09T01:41:34.939Z,14.35
2024-05-09T01:44:04.686Z,14.35
2024-05-09T01:46:34.936Z,14.34
2024-05-09T01:49:04.661Z,14.33
2024-05-09T01:51:34.398Z,14.32
2024-05-09T01:54:07.060Z,14.33
2024-05-09T01:56:36.645Z,14.04
2024-05-09T01:59:07.609Z,14.24
2024-05-09T02:01:55.696Z,14.27
2024-05-09T02:04:27.413Z,14.26
2024-05-09T02:06:57.059Z,14.26
2024-05-09T02:09:29.456Z,14.27
2024-05-09T02:11:59.295Z,14.22
2024-05-09T02:14:29.015Z,14.22
2024-05-09T02:16:58.910Z,14.22
2024-05-09T02:19:28.819Z,14.21
2024-05-09T02:21:58.497Z,14.20
2024-05-09T02:24:30.822Z,14.21
2024-05-09T02:27:00.670Z,14.16
2024-05-09T02:29:30.520Z,14.17
2024-05-09T02:32:00.552Z,14.16
2024-05-09T02:34:30.395Z,14.13
2024-05-09T02:37:00.092Z,14.12
2024-05-09T02:39:29.724Z,14.14
2024-05-09T02:41:59.525Z,14.11
2024-05-09T02:44:26.888Z,14.09
2024-05-09T02:46:56.657Z,14.07
2024-05-09T02:49:24.855Z,14.06
2024-05-09T02:51:54.758Z,14.05
2024-05-09T02:54:22.061Z,14.02
2024-05-09T02:56:54.487Z,14.05
2024-05-09T02:59:21.922Z,13.98
2024-05-09T03:01:51.760Z,13.98
2024-05-09T03:04:18.971Z,13.97
2024-05-09T03:06:48.637Z,13.95
2024-05-09T03:09:15.946Z,13.93
2024-05-09T03:14:19.238Z,13.93
2024-05-09T03:16:49.000Z,13.88
2024-05-09T03:19:16.230Z,13.87
2024-05-09T03:21:46.055Z,13.84
2024-05-09T03:24:13.085Z,13.83
2024-05-09T03:26:44.135Z,13.80
2024-05-09T03:29:11.132Z,13.77
2024-05-09T03:31:44.295Z,13.78
2024-05-09T03:34:11.773Z,13.72
2024-05-09T03:36:44.123Z,13.73
2024-05-09T03:39:13.941Z,13.67
2024-05-09T03:41:43.798Z,13.67
2024-05-09T03:44:13.392Z,13.65
2024-05-09T03:46:43.058Z,13.64
2024-05-09T03:49:12.752Z,13.59
2024-05-09T03:51:42.891Z,13.56
2024-05-09T03:54:10.104Z,13.54
2024-05-09T03:56:40.066Z,13.52
2024-05-09T03:59:07.973Z,13.49
2024-05-09T04:01:37.744Z,13.47
2024-05-09T04:04:09.468Z,13.49
2024-05-09T04:06:39.294Z,13.43
2024-05-09T04:09:06.520Z,13.43
2024-05-09T04:11:36.275Z,13.42
2024-05-09T04:14:03.376Z,13.42
2024-05-09T04:16:33.141Z,13.42
2024-05-09T04:19:00.254Z,13.40
2024-05-09T04:21:32.598Z,13.41
2024-05-09T04:23:59.718Z,13.36
2024-05-09T04:26:29.531Z,13.37
2024-05-09T04:28:56.683Z,13.36
2024-05-09T04:31:26.518Z,13.36
2024-05-09T04:33:53.731Z,13.34
2024-05-09T04:36:23.549Z,13.33
2024-05-09T04:38:53.197Z,13.35
2024-05-09T04:41:22.918Z,13.32
2024-05-09T04:43:50.868Z,13.32
2024-05-09T04:46:20.577Z,13.32
2024-05-09T04:48:48.933Z,13.31
2024-05-09T04:51:18.818Z,13.31
2024-05-09T04:53:45.948Z,13.32
2024-05-09T04:56:18.255Z,13.35
2024-05-09T04:58:45.239Z,13.30
2024-05-09T05:01:15.065Z,13.31
2024-05-09T05:03:42.687Z,13.31
2024-05-09T05:06:12.563Z,13.32
2024-05-09T05:08:39.584Z,13.32
2024-05-09T05:11:09.394Z,13.33
2024-05-09T05:13:41.539Z,13.37
2024-05-09T05:16:11.739Z,13.35
2024-05-09T05:18:39.034Z,13.40
2024-05-09T05:21:09.023Z,13.44
2024-05-09T05:23:36.340Z,13.48
2024-05-09T05:26:06.292Z,13.56
2024-05-09T05:28:33.466Z,13.61
2024-05-09T05:31:05.681Z,13.72
2024-05-09T05:33:32.871Z,13.75
2024-05-09T05:36:02.684Z,13.84
2024-05-09T05:38:29.960Z,13.93
2024-05-09T05:40:59.615Z,14.02
2024-05-09T05:43:27.744Z,14.12
2024-05-09T05:45:57.704Z,14.22
2024-05-09T05:48:30.015Z,14.33
2024-05-09T05:50:57.140Z,14.39
2024-05-09T05:53:29.309Z,14.53
2024-05-09T05:55:56.465Z,14.63
2024-05-09T05:58:26.123Z,14.71
2024-05-09T06:00:53.891Z,14.83
2024-05-09T06:03:23.694Z,14.93
2024-05-09T06:05:53.451Z,15.04
2024-05-09T06:08:24.195Z,15.11
2024-05-09T06:10:52.235Z,15.19
2024-05-09T06:13:22.120Z,15.29
2024-05-09T06:15:49.578Z,15.37
2024-05-09T06:18:19.667Z,15.43
2024-05-09T06:20:47.030Z,15.48
2024-05-09T06:23:22.481Z,15.57
2024-05-09T06:25:49.820Z,15.59
2024-05-09T06:28:19.476Z,15.62
2024-05-09T06:30:46.549Z,15.67
2024-05-09T06:33:16.884Z,15.73
2024-05-09T06:35:46.761Z,15.82
2024-05-09T06:38:19.395Z,15.93
2024-05-09T06:40:46.564Z,15.97
2024-05-09T06:43:18.956Z,16.08
2024-05-09T06:45:48.240Z,16.17
2024-05-09T06:48:21.856Z,16.29
2024-05-09T06:50:50.667Z,16.36
2024-05-09T06:53:24.234Z,16.48
2024-05-09T06:55:51.606Z,16.56
2024-05-09T06:58:24.014Z,16.65
2024-05-09T07:00:51.135Z,16.77
2024-05-09T07:03:20.912Z,16.88
2024-05-09T07:05:49.335Z,16.99
2024-05-09T07:08:19.907Z,17.11
2024-05-09T07:10:50.217Z,17.26
2024-05-09T07:13:20.309Z,17.33
2024-05-09T07:15:47.478Z,17.44
2024-05-09T07:18:20.148Z,17.56
2024-05-09T07:20:49.400Z,17.66
2024-05-09T07:23:20.259Z,17.75
2024-05-09T07:25:50.082Z,17.88
2024-05-09T07:28:21.277Z,17.96
2024-05-09T07:30:51.271Z,18.04
2024-05-09T07:33:20.060Z,18.15
2024-05-09T07:35:51.484Z,18.25
2024-05-09T07:38:18.799Z,18.35
2024-05-09T07:40:49.098Z,18.44
2024-05-09T07:43:21.966Z,18.57
2024-05-09T07:45:54.493Z,18.63
2024-05-09T07:50:00.247Z,18.73
2024-05-09T07:53:50.606Z,18.58
2024-05-09T07:56:24.239Z,18.94
2024-05-09T07:58:55.658Z,19.05
2024-05-09T08:01:26.563Z,19.14
2024-05-09T08:03:54.677Z,19.22
2024-05-09T08:06:27.788Z,19.30
2024-05-09T08:08:55.347Z,19.36
2024-05-09T08:11:25.822Z,19.45
2024-05-09T08:13:55.555Z,19.54
2024-05-09T08:16:25.427Z,19.58
2024-05-09T08:18:52.675Z,19.67
2024-05-09T08:21:22.837Z,19.74
2024-05-09T08:23:50.236Z,19.81
2024-05-09T08:26:21.557Z,19.87
2024-05-09T08:28:49.286Z,19.94
2024-05-09T08:31:21.659Z,20.03
2024-05-09T08:33:51.144Z,20.08
2024-05-09T08:36:21.105Z,20.15
2024-05-09T08:38:51.973Z,20.20
2024-05-09T08:41:22.121Z,20.26
2024-05-09T08:43:50.570Z,20.33
2024-05-09T08:46:23.171Z,20.42
2024-05-09T08:48:53.124Z,20.47
2024-05-09T08:51:26.189Z,20.53
2024-05-09T08:53:55.200Z,20.54
2024-05-09T08:56:30.801Z,20.60
2024-05-09T08:59:01.634Z,20.65
2024-05-09T09:01:35.773Z,20.68
2024-05-09T09:04:08.298Z,20.72
2024-05-09T09:06:37.435Z,20.74
2024-05-09T09:09:07.333Z,20.79
2024-05-09T09:11:34.351Z,20.84
2024-05-09T09:14:04.071Z,20.88
2024-05-09T09:16:37.444Z,20.96
2024-05-09T09:19:07.561Z,20.97
2024-05-09T09:21:35.029Z,21.02
2024-05-09T09:24:10.028Z,21.08
2024-05-09T09:26:37.905Z,21.09
2024-05-09T09:29:07.803Z,21.13
2024-05-09T09:31:42.096Z,21.19
2024-05-09T09:34:12.363Z,21.19
2024-05-09T09:36:41.188Z,21.23
2024-05-09T09:39:12.470Z,21.29
2024-05-09T09:41:41.663Z,21.32
2024-05-09T09:44:13.290Z,21.34
2024-05-09T09:46:45.046Z,21.36
2024-05-09T09:49:15.574Z,21.37
2024-05-09T09:51:44.669Z,21.43
2024-05-09T09:54:17.700Z,21.47
2024-05-09T09:56:47.690Z,21.51
2024-05-09T09:59:19.497Z,21.54
2024-05-09T10:01:49.531Z,21.65
2024-05-09T10:04:20.566Z,21.69
2024-05-09T10:06:54.102Z,21.77
2024-05-09T10:09:24.532Z,21.81
2024-05-09T10:11:59.970Z,21.88
2024-05-09T10:14:33.495Z,21.96
2024-05-09T10:17:06.817Z,22.06
2024-05-09T10:19:36.581Z,22.08
2024-05-09T10:22:04.727Z,22.16
2024-05-09T10:24:50.199Z,22.23
2024-05-09T10:27:26.040Z,22.32
2024-05-09T10:29:56.407Z,22.36
2024-05-09T10:32:28.099Z,22.43
2024-05-09T10:35:08.077Z,22.46
2024-05-09T10:37:35.811Z,22.46
2024-05-09T10:40:11.927Z,22.49
2024-05-09T10:42:44.765Z,22.50
2024-05-09T10:45:14.410Z,22.53
2024-05-09T10:47:44.528Z,22.60
2024-05-09T10:50:22.287Z,22.59
2024-05-09T10:52:55.729Z,22.62
2024-05-09T10:55:32.163Z,22.68
2024-05-09T10:58:02.581Z,22.67
2024-05-09T11:00:36.419Z,22.69
2024-05-09T11:03:10.163Z,22.69
2024-05-09T11:05:45.032Z,22.66
2024-05-09T11:08:12.459Z,22.61
2024-05-09T11:10:42.923Z,22.59
2024-05-09T11:13:10.425Z,22.54
2024-05-09T11:15:43.570Z,22.53
2024-05-09T11:18:27.792Z,22.49
2024-05-09T11:20:57.271Z,22.44
2024-05-09T11:23:30.673Z,22.40
2024-05-09T11:25:59.179Z,22.38
2024-05-09T11:28:30.805Z,22.34
2024-05-09T11:31:06.665Z,22.32
2024-05-09T11:33:44.131Z,22.27
2024-05-09T11:36:12.224Z,22.18
2024-05-09T11:38:50.235Z,22.16
2024-05-09T11:41:20.588Z,22.08
2024-05-09T11:43:51.893Z,22.03
2024-05-09T11:46:51.744Z,21.95
2024-05-09T11:49:27.076Z,21.95
2024-05-09T11:55:02.844Z,21.84
2024-05-09T11:57:29.985Z,21.84
2024-05-09T12:00:00.127Z,21.85
2024-05-09T12:02:27.907Z,21.82
2024-05-09T12:05:01.904Z,21.86
2024-05-09T12:07:29.239Z,21.82
2024-05-09T12:09:59.152Z,21.85
2024-05-09T12:12:26.346Z,21.86
2024-05-09T12:14:56.033Z,21.86
2024-05-09T12:17:23.146Z,21.89
2024-05-09T12:19:53.632Z,21.94
2024-05-09T12:22:25.304Z,22.00
2024-05-09T12:24:55.608Z,22.01
2024-05-09T12:27:22.726Z,22.08
2024-05-09T12:29:53.078Z,22.14
2024-05-09T12:32:20.368Z,22.18
2024-05-09T12:34:50.112Z,22.26
2024-05-09T12:37:18.748Z,22.32
2024-05-09T12:39:51.134Z,22.38
2024-05-09T12:42:26.650Z,22.39
2024-05-09T12:44:57.760Z,22.40
2024-05-09T12:47:25.243Z,22.44
2024-05-09T12:49:55.087Z,22.46
2024-05-09T12:52:22.370Z,22.49
2024-05-09T12:54:54.928Z,22.54
2024-05-09T12:57:22.230Z,22.53
2024-05-09T12:59:51.846Z,22.56
2024-05-09T13:02:19.101Z,22.57
2024-05-09T13:04:48.975Z,22.58
2024-05-09T13:07:16.190Z,22.59
2024-05-09T13:09:55.450Z,22.59
2024-05-09T13:12:26.940Z,22.59
2024-05-09T13:14:56.613Z,22.53
2024-05-09T13:17:23.863Z,22.54
2024-05-09T13:19:53.636Z,22.51
2024-05-09T13:23:00.300Z,22.46
2024-05-09T13:25:30.490Z,22.44
2024-05-09T13:28:00.579Z,22.45
2024-05-09T13:30:38.798Z,22.39
2024-05-09T13:33:09.128Z,22.36
2024-05-09T13:35:39.835Z,22.34
2024-05-09T13:38:07.706Z,22.33
2024-05-09T13:40:37.436Z,22.31
2024-05-09T13:43:07.267Z,22.33
2024-05-09T13:45:37.094Z,22.28
2024-05-09T13:48:06.720Z,22.27
2024-05-09T13:50:37.149Z,22.24
2024-05-09T13:53:05.795Z,22.23
2024-05-09T13:55:36.440Z,22.22
2024-05-09T13:58:03.738Z,22.21
2024-05-09T14:00:44.404Z,22.22
2024-05-09T14:03:16.642Z,22.19
2024-05-09T14:05:48.393Z,22.17
2024-05-09T14:08:17.851Z,22.17
2024-05-09T14:10:48.934Z,22.17
2024-05-09T14:13:16.598Z,22.14
2024-05-09T14:15:49.555Z,22.16
2024-05-09T14:18:18.433Z,22.12
2024-05-09T14:20:51.192Z,22.11
2024-05-09T14:23:18.425Z,22.10
2024-05-09T14:25:52.156Z,22.10
2024-05-09T14:28:26.441Z,22.09
2024-05-09T14:31:01.331Z,22.11
2024-05-09T14:33:30.700Z,22.08
2024-05-09T14:36:00.685Z,22.09
2024-05-09T14:38:27.891Z,22.09
2024-05-09T14:40:57.574Z,22.08
2024-05-09T14:43:24.905Z,22.09
2024-05-09T14:45:55.856Z,22.08
2024-05-09T14:48:27.239Z,22.11
2024-05-09T14:50:59.555Z,22.08
2024-05-09T14:53:28.251Z,22.08
2024-05-09T14:55:58.350Z,22.08
2024-05-09T14:58:26.491Z,22.07
2024-05-09T15:00:56.501Z,22.07
2024-05-09T15:05:56.815Z,22.07
2024-05-09T15:08:23.988Z,22.06
2024-05-09T15:10:53.652Z,22.06
2024-05-09T15:13:21.153Z,22.05
2024-05-09T15:15:51.050Z,22.06
2024-05-09T15:18:18.534Z,22.05
2024-05-09T15:20:51.325Z,22.06
2024-05-09T15:23:18.628Z,22.03
2024-05-09T15:25:48.191Z,22.02
2024-05-09T15:28:15.678Z,22.01
2024-05-09T15:30:46.861Z,22.01
2024-05-09T15:33:14.693Z,21.99
2024-05-09T15:35:46.253Z,21.98
2024-05-09T15:38:16.322Z,21.95
2024-05-09T15:40:46.111Z,21.91
2024-05-09T15:43:13.414Z,21.87
2024-05-09T15:45:43.344Z,21.84
2024-05-09T15:48:11.458Z,21.83
2024-05-09T15:50:42.654Z,21.81
2024-05-09T15:53:12.045Z,21.77
2024-05-09T15:55:45.480Z,21.78
2024-05-09T15:58:13.271Z,21.75
2024-05-09T16:00:46.307Z,21.75
2024-05-09T16:03:15.575Z,21.72
2024-05-09T16:05:48.929Z,21.73
2024-05-09T16:08:16.608Z,21.71
2024-05-09T16:10:49.448Z,21.72
2024-05-09T16:13:17.446Z,21.68
2024-05-09T16:15:48.017Z,21.68
2024-05-09T16:18:15.686Z,21.66
2024-05-09T16:20:48.275Z,21.64
2024-05-09T16:23:19.671Z,21.62
2024-05-09T16:25:51.388Z,21.64
2024-05-09T16:28:22.908Z,21.58
2024-05-09T16:30:50.954Z,21.58
2024-05-09T16:33:23.719Z,21.57
2024-05-09T16:35:51.524Z,21.53
2024-05-09T16:38:22.818Z,21.51
2024-05-09T16:40:55.234Z,21.53
2024-05-09T16:43:22.518Z,21.20
2024-05-09T16:45:53.413Z,21.43
2024-05-09T16:48:20.622Z,21.44
2024-05-09T16:50:51.774Z,21.44
2024-05-09T16:53:19.164Z,21.42
2024-05-09T16:55:49.052Z,21.40
2024-05-09T16:58:19.406Z,21.41
2024-05-09T17:00:49.386Z,21.36
2024-05-09T17:03:17.038Z,21.35
2024-05-09T17:05:47.992Z,21.34
2024-05-09T17:08:16.302Z,21.32
2024-05-09T17:10:46.248Z,21.30
2024-05-09T17:13:16.189Z,21.29
2024-05-09T17:15:52.510Z,21.31
2024-05-09T17:18:20.467Z,21.25
2024-05-09T17:20:50.427Z,21.25
2024-05-09T17:23:17.517Z,21.23
2024-05-09T17:25:47.250Z,21.22
2024-05-09T17:28:14.529Z,21.20
2024-05-09T17:30:44.453Z,21.20
2024-05-09T17:33:14.639Z,21.21
2024-05-09T17:35:46.128Z,21.16
2024-05-09T17:38:13.359Z,21.13
2024-05-09T17:40:43.170Z,21.14
2024-05-09T17:43:10.998Z,21.14
2024-05-09T17:45:41.874Z,21.13
2024-05-09T17:48:11.023Z,21.12
2024-05-09T17:50:44.074Z,21.12
2024-05-09T17:53:11.515Z,21.07
2024-05-09T17:55:41.741Z,21.07
2024-05-09T17:58:09.804Z,21.07
2024-05-09T18:00:42.028Z,21.05
2024-05-09T18:03:12.217Z,21.03
2024-05-09T18:05:46.073Z,21.03
2024-05-09T18:08:13.843Z,20.98
2024-05-09T18:10:50.664Z,20.97
2024-05-09T18:13:19.216Z,20.94
2024-05-09T18:15:49.098Z,20.92
2024-05-09T18:18:16.463Z,20.92
2024-05-09T18:20:53.756Z,20.92
2024-05-09T18:23:20.932Z,20.88
2024-05-09T18:25:54.917Z,20.87
2024-05-09T18:28:22.857Z,20.85
2024-05-09T18:30:52.785Z,20.83
2024-05-09T18:33:20.761Z,20.81
2024-05-09T18:35:53.232Z,20.82
2024-05-09T18:38:25.352Z,20.48
2024-05-09T18:40:55.473Z,20.69
2024-05-09T18:43:28.741Z,20.71
2024-05-09T18:46:06.383Z,20.69
2024-05-09T18:48:33.954Z,20.65
2024-05-09T18:51:06.871Z,20.67
2024-05-09T18:53:33.910Z,20.62
2024-05-09T18:56:03.739Z,20.60
2024-05-09T18:58:33.362Z,20.58
2024-05-09T19:01:02.058Z,20.57
2024-05-09T19:03:32.085Z,20.52
2024-05-09T19:05:59.433Z,20.51
2024-05-09T19:08:32.147Z,20.50
2024-05-09T19:10:59.312Z,20.45
2024-05-09T19:13:28.980Z,20.42
2024-05-09T19:15:56.965Z,20.40
2024-05-09T19:18:26.828Z,20.36
2024-05-09T19:20:53.953Z,20.33
2024-05-09T19:23:23.930Z,20.29
2024-05-09T19:25:53.727Z,20.29
2024-05-09T19:28:23.661Z,20.23
2024-05-09T19:30:51.504Z,20.20
2024-05-09T19:33:22.338Z,20.16
2024-05-09T19:35:49.680Z,20.11
2024-05-09T19:38:19.673Z,20.09
2024-05-09T19:40:46.809Z,20.04
2024-05-09T19:43:19.815Z,20.03
2024-05-09T19:45:47.256Z,19.95
2024-05-09T19:48:17.347Z,19.94
2024-05-09T19:50:45.477Z,19.90
2024-05-09T19:53:15.818Z,19.86
2024-05-09T19:55:43.651Z,19.83
2024-05-09T19:58:13.544Z,19.79
2024-05-09T20:00:44.792Z,19.78
2024-05-09T20:03:16.194Z,19.73
2024-05-09T20:05:45.360Z,19.71
2024-05-09T20:08:19.181Z,19.65
2024-05-09T20:10:46.241Z,19.62
2024-05-09T20:13:16.525Z,19.59
2024-05-09T20:15:46.766Z,19.58
2024-05-09T20:18:20.235Z,19.52
2024-05-09T20:20:50.667Z,19.49
2024-05-09T20:23:22.530Z,19.43
2024-05-09T20:25:52.271Z,19.41
2024-05-09T20:28:22.079Z,19.38
2024-05-09T20:30:51.854Z,19.38
2024-05-09T20:33:21.697Z,19.32
2024-05-09T20:35:48.770Z,19.29
2024-05-09T20:38:18.395Z,19.26
2024-05-09T20:40:46.149Z,19.23
2024-05-09T20:43:16.389Z,19.19
2024-05-09T20:45:43.680Z,19.16
2024-05-09T20:48:16.238Z,19.16
2024-05-09T20:50:43.520Z,19.10
2024-05-09T20:53:15.120Z,19.07
2024-05-09T20:55:43.088Z,19.01
2024-05-09T20:58:13.775Z,18.99
2024-05-09T21:00:44.790Z,18.96
2024-05-09T21:03:18.836Z,18.93
2024-05-09T21:05:46.797Z,18.89
2024-05-09T21:08:16.886Z,18.86
2024-05-09T21:10:49.348Z,18.87
2024-05-09T21:13:18.976Z,18.51
2024-05-09T21:15:46.242Z,18.74
2024-05-09T21:18:18.827Z,18.77
2024-05-09T21:20:45.767Z,18.44
2024-05-09T21:23:15.424Z,18.65
2024-05-09T21:25:42.465Z,18.65
2024-05-09T21:28:12.250Z,18.64
2024-05-09T21:30:42.446Z,18.60
2024-05-09T21:33:14.804Z,18.58
2024-05-09T21:35:45.322Z,18.56
2024-05-09T21:38:16.132Z,18.53
2024-05-09T21:40:43.729Z,18.50
2024-05-09T21:43:14.293Z,18.45
2024-05-09T21:45:41.936Z,18.43
2024-05-09T21:48:11.870Z,18.38
2024-05-09T21:50:41.522Z,18.34
2024-05-09T21:53:14.972Z,18.32
2024-05-09T21:55:42.528Z,18.26
2024-05-09T21:58:12.355Z,18.24
2024-05-09T22:00:40.738Z,18.21
2024-05-09T22:03:12.093Z,18.18
2024-05-09T22:05:43.888Z,18.15
2024-05-09T22:08:16.289Z,18.12
2024-05-09T22:10:43.990Z,18.07
2024-05-09T22:13:15.812Z,18.07
2024-05-09T22:16:00.325Z,18.07
2024-05-09T22:18:33.412Z,18.02
2024-05-09T22:21:00.473Z,18.02
2024-05-09T22:23:32.882Z,18.03
2024-05-09T22:25:59.847Z,17.97
2024-05-09T22:28:29.466Z,17.99
2024-05-09T22:30:56.539Z,17.97
2024-05-09T22:33:26.167Z,17.96
2024-05-09T22:35:53.239Z,17.94
2024-05-09T22:38:23.247Z,17.92
2024-05-09T22:40:53.201Z,17.94
2024-05-09T22:43:24.885Z,17.89
2024-05-09T22:45:52.894Z,17.87
2024-05-09T22:48:23.674Z,17.85
2024-05-09T22:50:51.487Z,17.84
2024-05-09T22:53:21.492Z,17.82
2024-05-09T22:55:48.468Z,17.80
2024-05-09T22:58:21.470Z,17.79
2024-05-09T23:00:48.813Z,17.72
2024-05-09T23:03:21.492Z,17.69
2024-05-09T23:05:49.053Z,17.64
2024-05-09T23:08:18.788Z,17.61
2024-05-09T23:10:46.067Z,17.58
2024-05-09T23:13:16.048Z,17.55
2024-05-09T23:15:45.856Z,17.53
2024-05-09T23:18:15.666Z,17.47
2024-05-09T23:20:42.900Z,17.45
2024-05-09T23:23:12.787Z,17.43
2024-05-09T23:25:41.447Z,17.42
2024-05-09T23:28:11.632Z,17.38
2024-05-09T23:30:40.838Z,17.37
2024-05-09T23:33:15.160Z,17.39
2024-05-09T23:35:44.005Z,17.35
2024-05-09T23:38:14.046Z,17.35
2024-05-09T23:40:42.343Z,17.34
2024-05-09T23:43:13.513Z,17.34
2024-05-09T23:45:41.185Z,17.32
2024-05-09T23:48:14.422Z,17.32
2024-05-09T23:50:41.979Z,17.30
2024-05-09T23:53:11.993Z,17.30
2024-05-09T23:55:39.430Z,17.29
2024-05-09T23:58:11.333Z,17.28
